sensor_id;sensor_type;location;lat;lon;timestamp;P1;durP1;ratioP1;P2;durP2;ratioP2
48550;SDS011;34397;51.176;6.738;2023-08-21T00:02:21;2.05;;;1.20;;
48550;SDS011;34397;51.176;6.738;2023-08-21T00:04:55;3.17;;;1.30;;
48550;SDS011;34397;51.176;6.738;2023-08-21T00:07:28;2.15;;;1.10;;
48550;SDS011;34397;51.176;6.738;2023-08-21T00:10:00;3.78;;;1.10;;
48550;SDS011;34397;51.176;6.738;2023-08-21T00:12:32;3.25;;;1.42;;
48550;SDS011;34397;51.176;6.738;2023-08-21T00:15:05;5.47;;;2.17;;
48550;SDS011;34397;51.176;6.738;2023-08-21T00:17:39;4.53;;;1.20;;
48550;SDS011;34397;51.176;6.738;2023-08-21T00:20:11;4.07;;;1.30;;
48550;SDS011;34397;51.176;6.738;2023-08-21T00:22:45;4.05;;;1.15;;
48550;SDS011;34397;51.176;6.738;2023-08-21T00:25:16;4.32;;;1.45;;
48550;SDS011;34397;51.176;6.738;2023-08-21T00:27:48;3.13;;;1.30;;
48550;SDS011;34397;51.176;6.738;2023-08-21T00:30:20;2.80;;;1.67;;
48550;SDS011;34397;51.176;6.738;2023-08-21T00:32:52;4.03;;;1.40;;
48550;SDS011;34397;51.176;6.738;2023-08-21T00:35:24;3.55;;;1.42;;
48550;SDS011;34397;51.176;6.738;2023-08-21T00:37:57;3.70;;;1.60;;
48550;SDS011;34397;51.176;6.738;2023-08-21T00:40:30;4.53;;;1.50;;
48550;SDS011;34397;51.176;6.738;2023-08-21T00:43:03;4.47;;;1.60;;
48550;SDS011;34397;51.176;6.738;2023-08-21T00:45:35;6.57;;;1.23;;
48550;SDS011;34397;51.176;6.738;2023-08-21T00:48:13;1.77;;;1.08;;
48550;SDS011;34397;51.176;6.738;2023-08-21T00:50:45;3.53;;;1.55;;
48550;SDS011;34397;51.176;6.738;2023-08-21T00:53:19;4.18;;;1.33;;
48550;SDS011;34397;51.176;6.738;2023-08-21T00:55:51;5.38;;;1.52;;
48550;SDS011;34397;51.176;6.738;2023-08-21T01:00:54;6.33;;;2.17;;
48550;SDS011;34397;51.176;6.738;2023-08-21T01:03:27;4.43;;;1.70;;
48550;SDS011;34397;51.176;6.738;2023-08-21T01:06:00;3.60;;;1.70;;
48550;SDS011;34397;51.176;6.738;2023-08-21T01:08:35;4.35;;;2.10;;
48550;SDS011;34397;51.176;6.738;2023-08-21T01:11:17;5.30;;;1.95;;
48550;SDS011;34397;51.176;6.738;2023-08-21T01:13:54;6.07;;;2.17;;
48550;SDS011;34397;51.176;6.738;2023-08-21T01:16:35;4.65;;;2.10;;
48550;SDS011;34397;51.176;6.738;2023-08-21T01:19:09;5.47;;;2.00;;
48550;SDS011;34397;51.176;6.738;2023-08-21T01:21:52;4.60;;;2.10;;
48550;SDS011;34397;51.176;6.738;2023-08-21T01:24:25;4.07;;;1.73;;
48550;SDS011;34397;51.176;6.738;2023-08-21T01:26:57;5.80;;;2.10;;
48550;SDS011;34397;51.176;6.738;2023-08-21T01:29:30;4.55;;;1.77;;
48550;SDS011;34397;51.176;6.738;2023-08-21T01:32:06;4.88;;;1.90;;
48550;SDS011;34397;51.176;6.738;2023-08-21T01:34:43;3.60;;;1.92;;
48550;SDS011;34397;51.176;6.738;2023-08-21T01:37:17;3.88;;;1.80;;
48550;SDS011;34397;51.176;6.738;2023-08-21T01:39:51;5.68;;;1.90;;
48550;SDS011;34397;51.176;6.738;2023-08-21T01:42:23;5.30;;;2.05;;
48550;SDS011;34397;51.176;6.738;2023-08-21T01:44:55;6.03;;;2.70;;
48550;SDS011;34397;51.176;6.738;2023-08-21T01:47:27;3.40;;;1.70;;
48550;SDS011;34397;51.176;6.738;2023-08-21T01:49:58;4.75;;;1.63;;
48550;SDS011;34397;51.176;6.738;2023-08-21T01:52:30;4.20;;;1.70;;
48550;SDS011;34397;51.176;6.738;2023-08-21T01:55:04;5.15;;;1.65;;
48550;SDS011;34397;51.176;6.738;2023-08-21T01:57:37;7.07;;;2.13;;
48550;SDS011;34397;51.176;6.738;2023-08-21T02:00:10;3.53;;;1.58;;
48550;SDS011;34397;51.176;6.738;2023-08-21T02:02:43;3.22;;;1.67;;
48550;SDS011;34397;51.176;6.738;2023-08-21T02:05:15;2.50;;;1.70;;
48550;SDS011;34397;51.176;6.738;2023-08-21T02:07:47;6.60;;;2.00;;
48550;SDS011;34397;51.176;6.738;2023-08-21T02:10:20;6.50;;;2.30;;
48550;SDS011;34397;51.176;6.738;2023-08-21T02:12:52;3.17;;;1.60;;
48550;SDS011;34397;51.176;6.738;2023-08-21T02:15:24;7.18;;;1.70;;
48550;SDS011;34397;51.176;6.738;2023-08-21T02:17:56;3.85;;;1.40;;
48550;SDS011;34397;51.176;6.738;2023-08-21T02:20:28;2.88;;;1.55;;
48550;SDS011;34397;51.176;6.738;2023-08-21T02:23:00;2.10;;;1.50;;
48550;SDS011;34397;51.176;6.738;2023-08-21T02:25:33;6.85;;;1.70;;
48550;SDS011;34397;51.176;6.738;2023-08-21T02:28:05;3.85;;;1.60;;
48550;SDS011;34397;51.176;6.738;2023-08-21T02:30:39;3.95;;;1.48;;
48550;SDS011;34397;51.176;6.738;2023-08-21T02:33:11;4.47;;;1.60;;
48550;SDS011;34397;51.176;6.738;2023-08-21T02:35:43;4.30;;;1.75;;
48550;SDS011;34397;51.176;6.738;2023-08-21T02:38:15;4.85;;;1.70;;
48550;SDS011;34397;51.176;6.738;2023-08-21T02:40:49;5.45;;;1.58;;
48550;SDS011;34397;51.176;6.738;2023-08-21T02:43:21;3.58;;;1.65;;
48550;SDS011;34397;51.176;6.738;2023-08-21T02:45:53;5.72;;;1.60;;
48550;SDS011;34397;51.176;6.738;2023-08-21T02:48:25;4.45;;;1.60;;
48550;SDS011;34397;51.176;6.738;2023-08-21T02:50:57;2.72;;;1.45;;
48550;SDS011;34397;51.176;6.738;2023-08-21T02:53:29;3.45;;;1.33;;
48550;SDS011;34397;51.176;6.738;2023-08-21T02:56:02;5.43;;;1.38;;
48550;SDS011;34397;51.176;6.738;2023-08-21T02:58:34;2.95;;;1.25;;
48550;SDS011;34397;51.176;6.738;2023-08-21T03:01:06;2.92;;;1.45;;
48550;SDS011;34397;51.176;6.738;2023-08-21T03:03:38;2.25;;;1.33;;
48550;SDS011;34397;51.176;6.738;2023-08-21T03:06:10;4.72;;;1.85;;
48550;SDS011;34397;51.176;6.738;2023-08-21T03:08:42;5.90;;;1.50;;
48550;SDS011;34397;51.176;6.738;2023-08-21T03:11:15;4.00;;;1.30;;
48550;SDS011;34397;51.176;6.738;2023-08-21T03:13:47;3.60;;;1.60;;
48550;SDS011;34397;51.176;6.738;2023-08-21T03:16:19;4.20;;;1.40;;
48550;SDS011;34397;51.176;6.738;2023-08-21T03:18:54;3.53;;;1.58;;
48550;SDS011;34397;51.176;6.738;2023-08-21T03:21:28;4.45;;;1.50;;
48550;SDS011;34397;51.176;6.738;2023-08-21T03:23:59;4.30;;;1.60;;
48550;SDS011;34397;51.176;6.738;2023-08-21T03:26:33;3.67;;;1.50;;
48550;SDS011;34397;51.176;6.738;2023-08-21T03:29:05;4.60;;;1.85;;
48550;SDS011;34397;51.176;6.738;2023-08-21T03:31:36;3.70;;;1.90;;
48550;SDS011;34397;51.176;6.738;2023-08-21T03:34:08;5.70;;;2.33;;
48550;SDS011;34397;51.176;6.738;2023-08-21T03:36:40;5.05;;;2.20;;
48550;SDS011;34397;51.176;6.738;2023-08-21T03:39:12;3.35;;;1.90;;
48550;SDS011;34397;51.176;6.738;2023-08-21T03:41:45;6.57;;;2.20;;
48550;SDS011;34397;51.176;6.738;2023-08-21T03:44:17;5.88;;;2.55;;
48550;SDS011;34397;51.176;6.738;2023-08-21T03:46:49;4.55;;;2.22;;
48550;SDS011;34397;51.176;6.738;2023-08-21T03:49:21;3.58;;;2.15;;
48550;SDS011;34397;51.176;6.738;2023-08-21T03:51:53;5.25;;;2.42;;
48550;SDS011;34397;51.176;6.738;2023-08-21T03:54:25;5.55;;;2.40;;
48550;SDS011;34397;51.176;6.738;2023-08-21T03:56:58;4.53;;;2.40;;
48550;SDS011;34397;51.176;6.738;2023-08-21T03:59:30;4.53;;;2.40;;
48550;SDS011;34397;51.176;6.738;2023-08-21T04:02:03;4.90;;;2.20;;
48550;SDS011;34397;51.176;6.738;2023-08-21T04:04:35;8.43;;;3.20;;
48550;SDS011;34397;51.176;6.738;2023-08-21T04:07:07;6.50;;;2.60;;
48550;SDS011;34397;51.176;6.738;2023-08-21T04:12:12;6.13;;;2.50;;
48550;SDS011;34397;51.176;6.738;2023-08-21T04:14:44;6.55;;;2.05;;
48550;SDS011;34397;51.176;6.738;2023-08-21T04:17:19;3.95;;;2.10;;
48550;SDS011;34397;51.176;6.738;2023-08-21T04:19:52;7.30;;;2.42;;
48550;SDS011;34397;51.176;6.738;2023-08-21T04:22:24;4.95;;;2.10;;
48550;SDS011;34397;51.176;6.738;2023-08-21T04:24:56;5.68;;;1.90;;
48550;SDS011;34397;51.176;6.738;2023-08-21T04:30:01;4.45;;;1.63;;
48550;SDS011;34397;51.176;6.738;2023-08-21T04:32:35;4.50;;;1.70;;
48550;SDS011;34397;51.176;6.738;2023-08-21T04:35:07;6.88;;;1.95;;
48550;SDS011;34397;51.176;6.738;2023-08-21T04:37:46;2.97;;;1.50;;
48550;SDS011;34397;51.176;6.738;2023-08-21T04:40:18;5.30;;;1.90;;
48550;SDS011;34397;51.176;6.738;2023-08-21T04:42:53;7.63;;;1.85;;
48550;SDS011;34397;51.176;6.738;2023-08-21T04:45:25;4.70;;;1.55;;
48550;SDS011;34397;51.176;6.738;2023-08-21T04:47:57;4.30;;;1.48;;
48550;SDS011;34397;51.176;6.738;2023-08-21T04:50:29;6.18;;;1.63;;
48550;SDS011;34397;51.176;6.738;2023-08-21T04:53:00;8.32;;;1.60;;
48550;SDS011;34397;51.176;6.738;2023-08-21T04:55:33;3.42;;;1.45;;
48550;SDS011;34397;51.176;6.738;2023-08-21T04:58:08;2.88;;;1.33;;
48550;SDS011;34397;51.176;6.738;2023-08-21T05:00:40;3.97;;;1.40;;
48550;SDS011;34397;51.176;6.738;2023-08-21T05:03:12;7.00;;;1.73;;
48550;SDS011;34397;51.176;6.738;2023-08-21T05:05:51;1.77;;;1.20;;
48550;SDS011;34397;51.176;6.738;2023-08-21T05:08:24;4.55;;;1.70;;
48550;SDS011;34397;51.176;6.738;2023-08-21T05:10:57;7.90;;;1.92;;
48550;SDS011;34397;51.176;6.738;2023-08-21T05:13:31;4.07;;;1.40;;
48550;SDS011;34397;51.176;6.738;2023-08-21T05:16:03;2.88;;;1.30;;
48550;SDS011;34397;51.176;6.738;2023-08-21T05:18:35;3.88;;;1.50;;
48550;SDS011;34397;51.176;6.738;2023-08-21T05:21:07;8.32;;;1.95;;
48550;SDS011;34397;51.176;6.738;2023-08-21T05:23:39;4.40;;;1.58;;
48550;SDS011;34397;51.176;6.738;2023-08-21T05:26:11;4.22;;;1.33;;
48550;SDS011;34397;51.176;6.738;2023-08-21T05:28:44;3.97;;;1.63;;
48550;SDS011;34397;51.176;6.738;2023-08-21T05:31:16;5.00;;;1.63;;
48550;SDS011;34397;51.176;6.738;2023-08-21T05:33:48;5.07;;;1.70;;
48550;SDS011;34397;51.176;6.738;2023-08-21T05:36:20;4.60;;;1.58;;
48550;SDS011;34397;51.176;6.738;2023-08-21T05:38:52;4.03;;;1.50;;
48550;SDS011;34397;51.176;6.738;2023-08-21T05:41:24;6.35;;;1.58;;
48550;SDS011;34397;51.176;6.738;2023-08-21T05:43:57;3.13;;;1.50;;
48550;SDS011;34397;51.176;6.738;2023-08-21T05:46:29;4.22;;;1.67;;
48550;SDS011;34397;51.176;6.738;2023-08-21T05:49:01;6.13;;;1.60;;
48550;SDS011;34397;51.176;6.738;2023-08-21T05:51:33;6.25;;;1.75;;
48550;SDS011;34397;51.176;6.738;2023-08-21T05:54:05;2.85;;;1.60;;
48550;SDS011;34397;51.176;6.738;2023-08-21T05:56:37;2.58;;;1.52;;
48550;SDS011;34397;51.176;6.738;2023-08-21T05:59:10;4.55;;;1.58;;
48550;SDS011;34397;51.176;6.738;2023-08-21T06:01:42;7.72;;;1.70;;
48550;SDS011;34397;51.176;6.738;2023-08-21T06:04:14;5.55;;;1.70;;
48550;SDS011;34397;51.176;6.738;2023-08-21T06:06:46;7.15;;;2.15;;
48550;SDS011;34397;51.176;6.738;2023-08-21T06:09:18;11.63;;;2.13;;
48550;SDS011;34397;51.176;6.738;2023-08-21T06:11:50;5.70;;;1.70;;
48550;SDS011;34397;51.176;6.738;2023-08-21T06:14:24;5.88;;;1.90;;
48550;SDS011;34397;51.176;6.738;2023-08-21T06:16:59;13.95;;;3.15;;
48550;SDS011;34397;51.176;6.738;2023-08-21T06:19:32;12.43;;;2.83;;
48550;SDS011;34397;51.176;6.738;2023-08-21T06:22:04;8.70;;;1.85;;
48550;SDS011;34397;51.176;6.738;2023-08-21T06:27:08;4.60;;;2.10;;
48550;SDS011;34397;51.176;6.738;2023-08-21T06:29:41;4.45;;;2.35;;
48550;SDS011;34397;51.176;6.738;2023-08-21T06:32:13;5.85;;;2.08;;
48550;SDS011;34397;51.176;6.738;2023-08-21T06:34:45;6.43;;;2.20;;
48550;SDS011;34397;51.176;6.738;2023-08-21T06:37:17;14.15;;;2.47;;
48550;SDS011;34397;51.176;6.738;2023-08-21T06:39:49;3.65;;;1.92;;
48550;SDS011;34397;51.176;6.738;2023-08-21T06:42:21;5.55;;;2.17;;
48550;SDS011;34397;51.176;6.738;2023-08-21T06:44:54;7.28;;;2.55;;
48550;SDS011;34397;51.176;6.738;2023-08-21T06:47:26;4.68;;;2.60;;
48550;SDS011;34397;51.176;6.738;2023-08-21T06:52:30;6.65;;;2.42;;
48550;SDS011;34397;51.176;6.738;2023-08-21T06:55:02;4.45;;;2.47;;
48550;SDS011;34397;51.176;6.738;2023-08-21T06:57:35;5.57;;;2.40;;
48550;SDS011;34397;51.176;6.738;2023-08-21T07:00:09;5.13;;;2.30;;
48550;SDS011;34397;51.176;6.738;2023-08-21T07:02:42;4.03;;;2.42;;
48550;SDS011;34397;51.176;6.738;2023-08-21T07:05:14;9.32;;;2.47;;
48550;SDS011;34397;51.176;6.738;2023-08-21T07:07:46;4.93;;;2.38;;
48550;SDS011;34397;51.176;6.738;2023-08-21T07:10:18;10.00;;;3.88;;
48550;SDS011;34397;51.176;6.738;2023-08-21T07:12:50;18.10;;;3.28;;
48550;SDS011;34397;51.176;6.738;2023-08-21T07:15:25;25.60;;;4.60;;
48550;SDS011;34397;51.176;6.738;2023-08-21T07:17:57;8.80;;;2.97;;
48550;SDS011;34397;51.176;6.738;2023-08-21T07:20:29;6.70;;;2.80;;
48550;SDS011;34397;51.176;6.738;2023-08-21T07:23:01;10.02;;;3.03;;
48550;SDS011;34397;51.176;6.738;2023-08-21T07:25:34;7.93;;;3.25;;
48550;SDS011;34397;51.176;6.738;2023-08-21T07:28:06;9.27;;;3.50;;
48550;SDS011;34397;51.176;6.738;2023-08-21T07:30:41;6.38;;;2.60;;
48550;SDS011;34397;51.176;6.738;2023-08-21T07:33:13;8.23;;;3.00;;
48550;SDS011;34397;51.176;6.738;2023-08-21T07:35:45;7.65;;;2.80;;
48550;SDS011;34397;51.176;6.738;2023-08-21T07:38:17;7.95;;;3.08;;
48550;SDS011;34397;51.176;6.738;2023-08-21T07:40:48;9.02;;;3.40;;
48550;SDS011;34397;51.176;6.738;2023-08-21T07:43:20;10.98;;;3.20;;
48550;SDS011;34397;51.176;6.738;2023-08-21T07:45:54;6.65;;;3.35;;
48550;SDS011;34397;51.176;6.738;2023-08-21T07:48:25;9.25;;;3.03;;
48550;SDS011;34397;51.176;6.738;2023-08-21T07:50:57;12.82;;;3.63;;
48550;SDS011;34397;51.176;6.738;2023-08-21T07:53:30;11.45;;;3.30;;
48550;SDS011;34397;51.176;6.738;2023-08-21T07:56:02;10.43;;;3.33;;
48550;SDS011;34397;51.176;6.738;2023-08-21T07:58:35;8.18;;;3.20;;
48550;SDS011;34397;51.176;6.738;2023-08-21T08:03:40;8.60;;;3.53;;
48550;SDS011;34397;51.176;6.738;2023-08-21T08:06:12;7.90;;;3.75;;
48550;SDS011;34397;51.176;6.738;2023-08-21T08:08:44;8.55;;;3.40;;
48550;SDS011;34397;51.176;6.738;2023-08-21T08:11:16;5.93;;;3.10;;
48550;SDS011;34397;51.176;6.738;2023-08-21T08:16:21;12.00;;;3.53;;
48550;SDS011;34397;51.176;6.738;2023-08-21T08:18:53;10.82;;;3.38;;
48550;SDS011;34397;51.176;6.738;2023-08-21T08:21:25;5.72;;;2.90;;
48550;SDS011;34397;51.176;6.738;2023-08-21T08:23:57;12.57;;;3.40;;
48550;SDS011;34397;51.176;6.738;2023-08-21T08:26:29;6.78;;;2.90;;
48550;SDS011;34397;51.176;6.738;2023-08-21T08:29:01;12.43;;;3.00;;
48550;SDS011;34397;51.176;6.738;2023-08-21T08:34:08;7.90;;;3.05;;
48550;SDS011;34397;51.176;6.738;2023-08-21T08:36:40;9.35;;;2.95;;
48550;SDS011;34397;51.176;6.738;2023-08-21T08:39:12;5.53;;;2.30;;
48550;SDS011;34397;51.176;6.738;2023-08-21T08:41:55;6.90;;;3.05;;
48550;SDS011;34397;51.176;6.738;2023-08-21T08:44:30;8.40;;;2.65;;
48550;SDS011;34397;51.176;6.738;2023-08-21T08:47:07;4.35;;;2.72;;
48550;SDS011;34397;51.176;6.738;2023-08-21T08:49:41;7.50;;;2.30;;
48550;SDS011;34397;51.176;6.738;2023-08-21T08:52:22;6.55;;;2.28;;
48550;SDS011;34397;51.176;6.738;2023-08-21T08:54:57;9.45;;;2.25;;
48550;SDS011;34397;51.176;6.738;2023-08-21T08:57:30;5.30;;;2.22;;
48550;SDS011;34397;51.176;6.738;2023-08-21T09:00:02;4.75;;;2.20;;
48550;SDS011;34397;51.176;6.738;2023-08-21T09:02:38;4.72;;;1.80;;
48550;SDS011;34397;51.176;6.738;2023-08-21T09:05:11;3.83;;;1.52;;
48550;SDS011;34397;51.176;6.738;2023-08-21T09:07:47;5.38;;;1.73;;
48550;SDS011;34397;51.176;6.738;2023-08-21T09:10:35;4.88;;;2.00;;
48550;SDS011;34397;51.176;6.738;2023-08-21T09:13:08;8.30;;;2.75;;
48550;SDS011;34397;51.176;6.738;2023-08-21T09:15:43;5.03;;;1.67;;
48550;SDS011;34397;51.176;6.738;2023-08-21T09:18:18;4.53;;;1.55;;
48550;SDS011;34397;51.176;6.738;2023-08-21T09:20:50;7.40;;;1.77;;
48550;SDS011;34397;51.176;6.738;2023-08-21T09:23:22;5.65;;;2.10;;
48550;SDS011;34397;51.176;6.738;2023-08-21T09:28:26;6.18;;;1.80;;
48550;SDS011;34397;51.176;6.738;2023-08-21T09:30:58;4.65;;;2.08;;
48550;SDS011;34397;51.176;6.738;2023-08-21T09:33:31;5.70;;;2.15;;
48550;SDS011;34397;51.176;6.738;2023-08-21T09:36:05;3.90;;;1.80;;
48550;SDS011;34397;51.176;6.738;2023-08-21T09:38:38;4.07;;;2.10;;
48550;SDS011;34397;51.176;6.738;2023-08-21T09:41:11;4.45;;;2.03;;
48550;SDS011;34397;51.176;6.738;2023-08-21T09:43:43;5.05;;;1.77;;
48550;SDS011;34397;51.176;6.738;2023-08-21T09:46:23;3.28;;;1.80;;
48550;SDS011;34397;51.176;6.738;2023-08-21T09:49:08;4.75;;;2.15;;
48550;SDS011;34397;51.176;6.738;2023-08-21T09:51:42;5.10;;;1.92;;
48550;SDS011;34397;51.176;6.738;2023-08-21T09:54:16;4.45;;;2.28;;
48550;SDS011;34397;51.176;6.738;2023-08-21T09:56:48;6.93;;;2.50;;
48550;SDS011;34397;51.176;6.738;2023-08-21T09:59:21;4.60;;;2.15;;
48550;SDS011;34397;51.176;6.738;2023-08-21T10:01:55;4.38;;;2.22;;
48550;SDS011;34397;51.176;6.738;2023-08-21T10:04:32;4.43;;;2.22;;
48550;SDS011;34397;51.176;6.738;2023-08-21T10:07:06;3.58;;;2.30;;
48550;SDS011;34397;51.176;6.738;2023-08-21T10:09:40;7.05;;;2.40;;
48550;SDS011;34397;51.176;6.738;2023-08-21T10:12:14;30.80;;;2.45;;
48550;SDS011;34397;51.176;6.738;2023-08-21T10:14:47;9.30;;;2.58;;
48550;SDS011;34397;51.176;6.738;2023-08-21T10:17:19;6.85;;;2.33;;
48550;SDS011;34397;51.176;6.738;2023-08-21T10:19:53;8.00;;;2.67;;
48550;SDS011;34397;51.176;6.738;2023-08-21T10:22:37;5.75;;;2.42;;
48550;SDS011;34397;51.176;6.738;2023-08-21T10:25:14;6.45;;;2.15;;
48550;SDS011;34397;51.176;6.738;2023-08-21T10:27:49;4.55;;;2.40;;
48550;SDS011;34397;51.176;6.738;2023-08-21T10:30:23;4.75;;;2.13;;
48550;SDS011;34397;51.176;6.738;2023-08-21T10:32:58;5.82;;;2.35;;
48550;SDS011;34397;51.176;6.738;2023-08-21T10:35:32;4.28;;;2.00;;
48550;SDS011;34397;51.176;6.738;2023-08-21T10:38:05;6.50;;;1.92;;
48550;SDS011;34397;51.176;6.738;2023-08-21T10:41:03;6.72;;;2.10;;
48550;SDS011;34397;51.176;6.738;2023-08-21T10:43:41;10.05;;;2.38;;
48550;SDS011;34397;51.176;6.738;2023-08-21T10:46:15;3.63;;;2.28;;
48550;SDS011;34397;51.176;6.738;2023-08-21T10:48:58;9.85;;;2.63;;
48550;SDS011;34397;51.176;6.738;2023-08-21T10:55:16;4.22;;;2.40;;
48550;SDS011;34397;51.176;6.738;2023-08-21T11:06:18;4.97;;;1.98;;
48550;SDS011;34397;51.176;6.738;2023-08-21T11:31:46;3.70;;;2.45;;
48550;SDS011;34397;51.176;6.738;2023-08-21T11:34:18;4.45;;;2.33;;
48550;SDS011;34397;51.176;6.738;2023-08-21T11:36:50;4.05;;;2.60;;
48550;SDS011;34397;51.176;6.738;2023-08-21T11:39:22;7.18;;;2.50;;
48550;SDS011;34397;51.176;6.738;2023-08-21T11:42:00;4.47;;;2.58;;
48550;SDS011;34397;51.176;6.738;2023-08-21T11:44:31;5.03;;;2.60;;
48550;SDS011;34397;51.176;6.738;2023-08-21T11:47:05;3.58;;;2.30;;
48550;SDS011;34397;51.176;6.738;2023-08-21T11:49:37;4.22;;;2.20;;
48550;SDS011;34397;51.176;6.738;2023-08-21T11:52:11;3.17;;;2.35;;
48550;SDS011;34397;51.176;6.738;2023-08-21T11:54:43;6.25;;;2.60;;
48550;SDS011;34397;51.176;6.738;2023-08-21T11:57:20;8.77;;;3.28;;
48550;SDS011;34397;51.176;6.738;2023-08-21T11:59:52;4.20;;;2.80;;
48550;SDS011;34397;51.176;6.738;2023-08-21T12:02:27;4.55;;;2.58;;
48550;SDS011;34397;51.176;6.738;2023-08-21T12:05:01;5.95;;;3.03;;
48550;SDS011;34397;51.176;6.738;2023-08-21T12:07:35;6.47;;;3.03;;
48550;SDS011;34397;51.176;6.738;2023-08-21T12:10:08;4.90;;;2.33;;
48550;SDS011;34397;51.176;6.738;2023-08-21T12:12:40;4.88;;;2.90;;
48550;SDS011;34397;51.176;6.738;2023-08-21T12:15:11;4.00;;;2.47;;
48550;SDS011;34397;51.176;6.738;2023-08-21T12:17:45;5.18;;;2.67;;
48550;SDS011;34397;51.176;6.738;2023-08-21T12:20:17;15.18;;;4.05;;
48550;SDS011;34397;51.176;6.738;2023-08-21T12:22:49;6.20;;;2.67;;
48550;SDS011;34397;51.176;6.738;2023-08-21T12:25:20;4.70;;;3.03;;
48550;SDS011;34397;51.176;6.738;2023-08-21T12:27:52;12.93;;;4.03;;
48550;SDS011;34397;51.176;6.738;2023-08-21T12:30:24;12.13;;;4.50;;
48550;SDS011;34397;51.176;6.738;2023-08-21T12:32:58;5.90;;;3.00;;
48550;SDS011;34397;51.176;6.738;2023-08-21T12:35:29;6.55;;;3.20;;
48550;SDS011;34397;51.176;6.738;2023-08-21T12:38:09;5.05;;;2.67;;
48550;SDS011;34397;51.176;6.738;2023-08-21T12:43:14;7.18;;;3.55;;
48550;SDS011;34397;51.176;6.738;2023-08-21T12:45:46;6.13;;;2.75;;
48550;SDS011;34397;51.176;6.738;2023-08-21T12:48:19;6.88;;;3.05;;
48550;SDS011;34397;51.176;6.738;2023-08-21T12:50:51;7.38;;;2.80;;
48550;SDS011;34397;51.176;6.738;2023-08-21T12:53:23;5.90;;;3.33;;
48550;SDS011;34397;51.176;6.738;2023-08-21T12:55:55;4.75;;;2.55;;
48550;SDS011;34397;51.176;6.738;2023-08-21T12:58:28;4.75;;;2.38;;
48550;SDS011;34397;51.176;6.738;2023-08-21T13:01:00;6.32;;;2.72;;
48550;SDS011;34397;51.176;6.738;2023-08-21T13:03:34;5.20;;;2.40;;
48550;SDS011;34397;51.176;6.738;2023-08-21T13:06:06;7.00;;;2.97;;
48550;SDS011;34397;51.176;6.738;2023-08-21T13:08:38;5.45;;;2.60;;
48550;SDS011;34397;51.176;6.738;2023-08-21T13:11:10;7.20;;;2.88;;
48550;SDS011;34397;51.176;6.738;2023-08-21T13:13:42;4.32;;;2.50;;
48550;SDS011;34397;51.176;6.738;2023-08-21T13:16:14;5.03;;;2.72;;
48550;SDS011;34397;51.176;6.738;2023-08-21T13:18:47;6.00;;;2.55;;
48550;SDS011;34397;51.176;6.738;2023-08-21T13:21:19;6.13;;;2.75;;
48550;SDS011;34397;51.176;6.738;2023-08-21T13:23:51;4.32;;;2.55;;
48550;SDS011;34397;51.176;6.738;2023-08-21T13:26:23;5.30;;;2.70;;
48550;SDS011;34397;51.176;6.738;2023-08-21T13:28:55;6.15;;;2.78;;
48550;SDS011;34397;51.176;6.738;2023-08-21T13:31:27;3.97;;;2.72;;
48550;SDS011;34397;51.176;6.738;2023-08-21T13:34:01;4.40;;;2.42;;
48550;SDS011;34397;51.176;6.738;2023-08-21T13:36:33;3.72;;;2.58;;
48550;SDS011;34397;51.176;6.738;2023-08-21T13:39:05;4.32;;;2.30;;
48550;SDS011;34397;51.176;6.738;2023-08-21T13:41:38;3.72;;;2.30;;
48550;SDS011;34397;51.176;6.738;2023-08-21T13:44:10;5.45;;;2.65;;
48550;SDS011;34397;51.176;6.738;2023-08-21T13:46:41;2.97;;;1.98;;
48550;SDS011;34397;51.176;6.738;2023-08-21T13:49:15;5.38;;;3.05;;
48550;SDS011;34397;51.176;6.738;2023-08-21T13:51:46;5.07;;;2.50;;
48550;SDS011;34397;51.176;6.738;2023-08-21T13:54:18;5.63;;;2.15;;
48550;SDS011;34397;51.176;6.738;2023-08-21T13:56:50;7.05;;;2.47;;
48550;SDS011;34397;51.176;6.738;2023-08-21T13:59:22;8.18;;;2.25;;
48550;SDS011;34397;51.176;6.738;2023-08-21T14:01:54;5.00;;;2.05;;
48550;SDS011;34397;51.176;6.738;2023-08-21T14:04:27;4.50;;;2.00;;
48550;SDS011;34397;51.176;6.738;2023-08-21T14:07:00;5.15;;;2.38;;
48550;SDS011;34397;51.176;6.738;2023-08-21T14:09:32;3.78;;;2.13;;
48550;SDS011;34397;51.176;6.738;2023-08-21T14:12:06;4.60;;;2.30;;
48550;SDS011;34397;51.176;6.738;2023-08-21T14:14:38;5.57;;;2.30;;
48550;SDS011;34397;51.176;6.738;2023-08-21T14:17:10;6.97;;;2.30;;
48550;SDS011;34397;51.176;6.738;2023-08-21T14:19:43;4.85;;;2.15;;
48550;SDS011;34397;51.176;6.738;2023-08-21T14:22:15;5.40;;;2.22;;
48550;SDS011;34397;51.176;6.738;2023-08-21T14:24:47;2.55;;;1.95;;
48550;SDS011;34397;51.176;6.738;2023-08-21T14:27:19;3.88;;;1.98;;
48550;SDS011;34397;51.176;6.738;2023-08-21T14:29:50;4.85;;;2.38;;
48550;SDS011;34397;51.176;6.738;2023-08-21T14:32:22;5.25;;;1.80;;
48550;SDS011;34397;51.176;6.738;2023-08-21T14:34:56;2.63;;;1.70;;
48550;SDS011;34397;51.176;6.738;2023-08-21T14:37:27;4.00;;;1.85;;
48550;SDS011;34397;51.176;6.738;2023-08-21T14:39:59;4.93;;;2.33;;
48550;SDS011;34397;51.176;6.738;2023-08-21T14:42:36;3.03;;;1.75;;
48550;SDS011;34397;51.176;6.738;2023-08-21T14:45:09;4.05;;;1.60;;
48550;SDS011;34397;51.176;6.738;2023-08-21T14:47:41;3.33;;;1.80;;
48550;SDS011;34397;51.176;6.738;2023-08-21T14:50:14;4.05;;;2.33;;
48550;SDS011;34397;51.176;6.738;2023-08-21T14:52:46;4.60;;;1.83;;
48550;SDS011;34397;51.176;6.738;2023-08-21T14:55:18;3.40;;;2.25;;
48550;SDS011;34397;51.176;6.738;2023-08-21T14:57:50;3.72;;;1.63;;
48550;SDS011;34397;51.176;6.738;2023-08-21T15:00:22;2.60;;;1.90;;
48550;SDS011;34397;51.176;6.738;2023-08-21T15:02:54;4.07;;;2.25;;
48550;SDS011;34397;51.176;6.738;2023-08-21T15:05:27;3.13;;;1.60;;
48550;SDS011;34397;51.176;6.738;2023-08-21T15:08:00;5.45;;;1.90;;
48550;SDS011;34397;51.176;6.738;2023-08-21T15:10:32;4.30;;;1.85;;
48550;SDS011;34397;51.176;6.738;2023-08-21T15:13:04;4.10;;;1.73;;
48550;SDS011;34397;51.176;6.738;2023-08-21T15:15:35;2.22;;;1.35;;
48550;SDS011;34397;51.176;6.738;2023-08-21T15:18:07;3.50;;;1.92;;
48550;SDS011;34397;51.176;6.738;2023-08-21T15:20:40;2.83;;;1.58;;
48550;SDS011;34397;51.176;6.738;2023-08-21T15:23:12;4.78;;;1.60;;
48550;SDS011;34397;51.176;6.738;2023-08-21T15:25:44;2.08;;;1.40;;
48550;SDS011;34397;51.176;6.738;2023-08-21T15:28:17;3.72;;;1.63;;
48550;SDS011;34397;51.176;6.738;2023-08-21T15:30:49;5.65;;;1.73;;
48550;SDS011;34397;51.176;6.738;2023-08-21T15:33:21;2.78;;;1.40;;
48550;SDS011;34397;51.176;6.738;2023-08-21T15:35:54;3.83;;;1.70;;
48550;SDS011;34397;51.176;6.738;2023-08-21T15:38:26;5.72;;;2.00;;
48550;SDS011;34397;51.176;6.738;2023-08-21T15:40:58;4.15;;;1.52;;
48550;SDS011;34397;51.176;6.738;2023-08-21T15:43:29;3.97;;;1.67;;
48550;SDS011;34397;51.176;6.738;2023-08-21T15:46:02;4.72;;;1.60;;
48550;SDS011;34397;51.176;6.738;2023-08-21T15:48:35;4.25;;;1.70;;
48550;SDS011;34397;51.176;6.738;2023-08-21T15:51:08;4.63;;;1.70;;
48550;SDS011;34397;51.176;6.738;2023-08-21T15:53:40;5.10;;;2.20;;
48550;SDS011;34397;51.176;6.738;2023-08-21T15:56:12;4.68;;;1.45;;
48550;SDS011;34397;51.176;6.738;2023-08-21T15:58:44;3.95;;;1.65;;
48550;SDS011;34397;51.176;6.738;2023-08-21T16:01:16;4.07;;;1.55;;
48550;SDS011;34397;51.176;6.738;2023-08-21T16:03:48;3.63;;;1.55;;
48550;SDS011;34397;51.176;6.738;2023-08-21T16:06:21;3.22;;;1.48;;
48550;SDS011;34397;51.176;6.738;2023-08-21T16:08:53;2.97;;;1.20;;
48550;SDS011;34397;51.176;6.738;2023-08-21T16:11:25;2.08;;;1.23;;
48550;SDS011;34397;51.176;6.738;2023-08-21T16:13:57;3.17;;;1.30;;
48550;SDS011;34397;51.176;6.738;2023-08-21T16:16:31;3.88;;;1.70;;
48550;SDS011;34397;51.176;6.738;2023-08-21T16:19:03;3.95;;;1.50;;
48550;SDS011;34397;51.176;6.738;2023-08-21T16:21:36;4.43;;;1.60;;
48550;SDS011;34397;51.176;6.738;2023-08-21T16:24:08;3.38;;;1.35;;